Time;durP1;ratioP1;P1;durP2;ratioP2;P2;SDS_P1;SDS_P2;PMS_P1;PMS_P2;Temp;Humidity;BMP_temperature;BMP_pressure;BME280_temperature;BME280_humidity;BME280_pressure;Samples;Min_cycle;Max_cycle;Signal;HPM_P1;HPM_P2
2023/07/18 00:00:47;;;;;;;8.40;2.65;;;;;;;20.59;52.37;101595.69;5097139;28;20040;-64
2023/07/18 00:03:23;;;;;;;10.68;2.10;;;;;;;20.77;51.96;101602.59;5098391;28;20502;-63
2023/07/18 00:05:51;;;;;;;9.27;2.20;;;;;;;20.60;52.08;101594.53;5116725;28;20047;-65
2023/07/18 00:08:19;;;;;;;10.48;2.30;;;;;;;20.48;52.56;101591.00;5112825;28;20054;-61
2023/07/18 00:10:46;;;;;;;6.90;2.05;;;;;;;20.53;52.52;101590.72;5116104;28;20059;-60
2023/07/18 00:13:14;;;;;;;9.27;2.35;;;;;;;20.39;52.76;101593.16;5098862;28;20056;-64
2023/07/18 00:15:42;;;;;;;6.10;2.05;;;;;;;20.55;52.32;101597.63;5099862;28;20042;-64
2023/07/18 00:18:10;;;;;;;13.10;2.22;;;;;;;20.30;52.89;101601.72;5108887;28;20059;-65
2023/07/18 00:20:38;;;;;;;5.63;2.00;;;;;;;20.29;52.99;101591.69;5114739;27;20040;-64
2023/07/18 00:23:09;;;;;;;9.38;2.80;;;;;;;20.15;53.61;101597.66;5107629;27;20056;-64
2023/07/18 00:25:37;;;;;;;8.77;3.55;;;;;;;20.10;53.83;101597.91;5096573;28;20055;-65
2023/07/18 00:28:05;;;;;;;17.40;4.38;;;;;;;19.95;53.88;101586.69;5096004;28;20459;-64
2023/07/18 00:30:33;;;;;;;12.02;4.32;;;;;;;20.22;53.53;101587.88;5096275;28;20063;-64
2023/07/18 00:33:00;;;;;;;15.07;4.03;;;;;;;20.55;52.82;101580.00;5072448;28;20039;-61
2023/07/18 00:35:28;;;;;;;13.30;4.47;;;;;;;20.64;52.17;101587.03;5115953;28;20039;-61
2023/07/18 00:37:57;;;;;;;9.73;3.75;;;;;;;20.43;52.48;101586.50;5088207;28;20059;-61
2023/07/18 00:40:24;;;;;;;11.80;2.85;;;;;;;20.16;53.07;101590.13;5074208;28;20162;-62
2023/07/18 00:42:52;;;;;;;10.32;2.72;;;;;;;19.90;53.84;101582.16;5089338;28;20066;-61
2023/07/18 00:45:19;;;;;;;7.75;2.40;;;;;;;19.72;54.65;101585.59;5116542;28;20047;-61
2023/07/18 00:47:48;;;;;;;10.15;2.40;;;;;;;19.84;54.34;101575.19;5094565;28;20043;-61
2023/07/18 00:50:17;;;;;;;7.35;2.03;;;;;;;19.93;54.07;101583.41;5114407;28;20054;-65
2023/07/18 00:52:47;;;;;;;12.20;2.60;;;;;;;19.95;53.49;101579.09;5097485;28;20059;-64
2023/07/18 00:55:16;;;;;;;;;;;;;;;19.82;54.26;101574.72;5115226;28;20059;-65
2023/07/18 00:57:45;;;;;;;10.40;2.30;;;;;;;19.71;54.40;101568.03;5116175;28;19919;-64
2023/07/18 01:00:14;;;;;;;8.70;2.05;;;;;;;19.87;54.19;101570.88;5096850;28;20044;-64
2023/07/18 01:02:45;;;;;;;10.93;2.58;;;;;;;20.06;53.56;101568.22;5097583;28;20048;-61
2023/07/18 01:05:17;;;;;;;9.18;2.08;;;;;;;19.93;53.76;101569.44;5115748;28;20078;-61
2023/07/18 01:07:46;;;;;;;12.65;2.20;;;;;;;20.07;53.10;101559.47;5098375;28;20051;-61
2023/07/18 01:10:25;;;;;;;8.30;2.20;;;;;;;20.21;52.83;101567.47;5114489;28;20048;-61
2023/07/18 01:13:00;;;;;;;7.93;2.20;;;;;;;20.17;53.02;101553.38;5113428;28;20054;-65
2023/07/18 01:15:32;;;;;;;12.35;2.83;;;;;;;20.22;52.78;101557.94;5115649;28;20043;-61
2023/07/18 01:18:05;;;;;;;10.38;2.75;;;;;;;20.23;52.72;101558.72;5100851;27;20382;-61
2023/07/18 01:20:33;;;;;;;8.63;2.40;;;;;;;19.99;53.11;101559.63;5130079;27;20051;-65
2023/07/18 01:23:06;;;;;;;17.35;2.25;;;;;;;20.08;52.92;101551.91;5095184;28;20059;-64
2023/07/18 01:25:38;;;;;;;9.18;1.63;;;;;;;20.06;52.91;101554.25;5095015;28;20533;-66
2023/07/18 01:28:06;;;;;;;9.18;1.90;;;;;;;20.22;52.53;101559.91;5077639;28;20059;-64
2023/07/18 01:30:33;;;;;;;8.13;2.10;;;;;;;20.41;52.17;101557.22;5077095;28;20052;-65
2023/07/18 01:33:02;;;;;;;10.73;2.33;;;;;;;20.43;51.73;101561.31;5093350;27;20392;-61
2023/07/18 01:35:30;;;;;;;9.05;2.15;;;;;;;20.15;51.95;101554.91;5096080;27;20511;-61
2023/07/18 01:37:58;;;;;;;12.00;1.98;;;;;;;19.82;52.66;101563.53;5095365;28;20559;-63
2023/07/18 01:40:26;;;;;;;9.45;1.88;;;;;;;19.85;53.06;101557.25;5089617;28;20496;-64
2023/07/18 01:42:55;;;;;;;6.53;1.77;;;;;;;19.62;53.41;101560.94;5079628;28;20058;-64
2023/07/18 01:45:24;;;;;;;7.80;1.80;;;;;;;19.48;53.70;101554.91;5078330;28;20144;-62
2023/07/18 01:47:52;;;;;;;10.68;2.00;;;;;;;19.71;53.50;101561.59;5076387;28;20048;-61
2023/07/18 01:50:19;;;;;;;16.92;2.13;;;;;;;19.84;52.99;101546.44;5058423;28;20511;-61
2023/07/18 01:52:47;;;;;;;6.65;1.80;;;;;;;19.79;52.76;101547.47;5094202;28;20048;-60
2023/07/18 01:55:15;;;;;;;7.43;2.30;;;;;;;19.57;53.42;101539.63;5066330;28;20059;-61
2023/07/18 01:57:46;;;;;;;8.93;1.73;;;;;;;19.65;52.80;101535.88;5039746;28;20048;-64
2023/07/18 02:00:19;;;;;;;9.57;1.83;;;;;;;19.72;52.88;101527.69;5071252;28;20048;-64
2023/07/18 02:02:52;;;;;;;7.25;1.90;;;;;;;19.58;52.74;101526.50;5094481;28;20067;-63
2023/07/18 02:05:23;;;;;;;7.57;1.90;;;;;;;19.72;52.13;101535.25;5069058;28;20048;-63
2023/07/18 02:07:51;;;;;;;9.25;1.85;;;;;;;19.62;52.55;101531.00;5076157;28;20048;-64
2023/07/18 02:10:20;;;;;;;5.32;1.70;;;;;;;19.75;52.48;101532.56;5093016;28;20048;-60
2023/07/18 02:12:50;;;;;;;6.85;2.00;;;;;;;19.69;52.03;101533.19;5076059;28;20126;-60
2023/07/18 02:15:18;;;;;;;10.35;2.20;;;;;;;19.56;52.74;101531.63;5075258;28;20052;-60
2023/07/18 02:17:46;;;;;;;6.53;1.60;;;;;;;19.43;53.03;101521.63;5094603;28;20048;-61
2023/07/18 02:20:15;;;;;;;;;;;;;;;19.75;52.42;101515.00;5076814;28;20052;-62
2023/07/18 02:22:44;;;;;;;10.32;2.15;;;;;;;19.82;52.23;101523.59;5093112;28;19920;-61
2023/07/18 02:25:12;;;;;;;8.63;2.03;;;;;;;19.74;52.36;101516.97;5094112;28;20048;-61
2023/07/18 02:27:41;;;;;;;6.55;1.92;;;;;;;19.67;52.32;101510.34;5092003;28;20044;-62
2023/07/18 02:30:11;;;;;;;5.03;1.35;;;;;;;19.95;51.86;101512.00;5089296;28;20048;-62
2023/07/18 02:32:43;;;;;;;6.07;1.50;;;;;;;19.77;51.92;101507.88;5052898;28;20078;-62
2023/07/18 02:35:17;;;;;;;13.20;1.98;;;;;;;19.58;52.20;101502.13;5093961;28;20052;-65
2023/07/18 02:37:46;;;;;;;10.05;1.70;;;;;;;19.53;52.13;101504.34;5072173;28;20037;-64
2023/07/18 02:40:15;;;;;;;4.47;1.40;;;;;;;19.47;51.66;101503.81;5068032;28;20066;-61
2023/07/18 02:42:43;;;;;;;8.27;1.52;;;;;;;19.56;51.93;101498.06;5074412;28;20656;-62
2023/07/18 02:45:10;;;;;;;8.20;1.85;;;;;;;19.57;51.71;101500.50;5056882;28;20048;-62
2023/07/18 02:47:39;;;;;;;6.90;1.50;;;;;;;19.88;50.89;101497.00;5094031;28;20040;-61
2023/07/18 02:50:07;;;;;;;6.15;1.70;;;;;;;19.77;50.75;101493.91;5101100;28;20044;-61
2023/07/18 02:52:35;;;;;;;6.07;1.30;;;;;;;19.86;50.81;101493.72;5075708;28;20052;-60
2023/07/18 02:55:03;;;;;;;4.85;1.40;;;;;;;19.65;51.38;101488.34;5075872;28;20036;-62
2023/07/18 02:57:31;;;;;;;7.47;1.83;;;;;;;19.77;51.05;101485.50;5075639;28;20048;-61
2023/07/18 02:59:59;;;;;;;9.18;2.00;;;;;;;19.87;50.83;101485.00;5093892;28;20048;-61
2023/07/18 03:02:30;;;;;;;6.70;1.73;;;;;;;19.87;50.75;101476.63;5093847;28;20044;-62
2023/07/18 03:04:58;;;;;;;9.88;1.77;;;;;;;20.02;50.43;101470.25;5093322;28;20051;-60
2023/07/18 03:07:25;;;;;;;6.00;1.30;;;;;;;20.11;49.48;101467.25;5075447;28;20052;-64
2023/07/18 03:09:52;;;;;;;7.07;1.77;;;;;;;19.97;50.02;101472.47;5094100;28;20051;-65
2023/07/18 03:12:21;;;;;;;9.02;1.60;;;;;;;19.99;49.72;101456.97;5075673;28;20048;-64
2023/07/18 03:14:49;;;;;;;7.80;1.65;;;;;;;20.20;49.37;101464.31;5092028;28;20059;-64
2023/07/18 03:17:17;;;;;;;5.63;1.50;;;;;;;20.19;49.45;101462.72;5093701;28;20047;-62
2023/07/18 03:19:44;;;;;;;7.03;1.50;;;;;;;19.98;49.39;101466.53;5092463;28;20063;-61
2023/07/18 03:22:13;;;;;;;5.53;1.60;;;;;;;19.94;49.77;101459.22;5074395;28;20059;-60
2023/07/18 03:24:40;;;;;;;8.75;1.98;;;;;;;20.01;49.08;101460.19;5072295;28;20056;-61
2023/07/18 03:27:08;;;;;;;7.65;2.08;;;;;;;19.88;49.65;101455.03;5055354;28;20051;-61
2023/07/18 03:29:35;;;;;;;13.77;2.22;;;;;;;19.59;50.16;101452.63;5073502;28;20067;-61
2023/07/18 03:32:03;;;;;;;7.35;2.00;;;;;;;19.95;49.58;101470.03;5042714;28;20052;-64
2023/07/18 03:34:31;;;;;;;11.02;1.75;;;;;;;20.08;49.26;101463.19;5041418;28;20048;-63
2023/07/18 03:36:59;;;;;;;6.03;1.40;;;;;;;19.83;49.13;101464.53;5093235;28;20051;-64
2023/07/18 03:39:26;;;;;;;8.30;1.65;;;;;;;19.76;49.27;101450.34;5094137;28;20067;-63
2023/07/18 03:41:54;;;;;;;7.95;1.95;;;;;;;19.57;49.89;101466.97;5099249;28;20518;-60
2023/07/18 03:44:21;;;;;;;7.10;1.85;;;;;;;19.74;49.13;101458.28;5117489;28;20056;-61
2023/07/18 03:46:48;;;;;;;7.10;1.73;;;;;;;19.89;49.28;101459.47;5117784;28;20048;-61
2023/07/18 03:49:19;;;;;;;7.85;1.60;;;;;;;19.72;49.83;101454.19;5101156;27;20052;-64
2023/07/18 03:51:46;;;;;;;8.23;1.73;;;;;;;19.92;49.10;101454.00;5123059;27;20062;-61
2023/07/18 03:54:14;;;;;;;6.82;1.80;;;;;;;19.92;49.36;101450.38;5116012;28;20066;-61
2023/07/18 03:56:42;;;;;;;6.80;1.70;;;;;;;19.75;49.97;101448.69;5117301;28;20049;-61
2023/07/18 03:59:09;;;;;;;10.57;2.13;;;;;;;19.69;50.13;101454.91;5101509;28;20051;-60
2023/07/18 04:01:37;;;;;;;7.25;1.60;;;;;;;19.64;50.01;101450.41;5113198;28;20055;-62
2023/07/18 04:04:04;;;;;;;4.13;1.40;;;;;;;19.60;50.46;101449.50;5097995;28;20043;-61
2023/07/18 04:06:32;;;;;;;7.68;1.90;;;;;;;19.45;50.42;101439.09;5098223;28;20052;-61
2023/07/18 04:09:00;;;;;;;11.05;1.63;;;;;;;19.38;50.68;101446.44;5117109;28;20047;-60
2023/07/18 04:11:27;;;;;;;10.95;2.05;;;;;;;19.19;50.83;101435.88;5099493;28;20048;-61
2023/07/18 04:13:54;;;;;;;5.38;1.70;;;;;;;19.05;51.78;101439.06;5116587;28;20059;-65
2023/07/18 04:16:22;;;;;;;4.97;1.60;;;;;;;19.54;50.39;101439.75;5098858;28;20109;-61
2023/07/18 04:18:52;;;;;;;;;;;;;;;19.48;49.90;101429.97;5117317;28;20052;-65
2023/07/18 04:21:19;;;;;;;8.80;1.98;;;;;;;19.52;50.22;101433.69;5098484;28;19927;-64
2023/07/18 04:23:50;;;;;;;13.32;1.98;;;;;;;19.70;49.75;101425.81;5116876;28;20055;-66
2023/07/18 04:26:17;;;;;;;5.88;1.83;;;;;;;19.48;50.23;101429.97;5117100;28;20044;-64
2023/07/18 04:28:45;;;;;;;9.07;2.20;;;;;;;19.67;49.56;101420.91;5097261;28;20055;-64
2023/07/18 04:31:13;;;;;;;8.15;2.22;;;;;;;19.49;50.20;101417.63;5098760;28;20055;-66
2023/07/18 04:33:43;;;;;;;7.20;1.80;;;;;;;19.82;49.34;101412.56;5127239;27;20434;-65
2023/07/18 04:36:10;;;;;;;7.53;1.60;;;;;;;20.09;48.67;101410.88;5127514;27;20070;-65
2023/07/18 04:38:37;;;;;;;9.75;2.13;;;;;;;19.97;48.78;101408.97;5115600;28;20063;-66
2023/07/18 04:41:05;;;;;;;6.75;1.70;;;;;;;19.87;48.44;101406.72;5116652;28;20052;-64
2023/07/18 04:43:33;;;;;;;9.43;1.95;;;;;;;20.03;48.58;101401.94;5116330;28;20374;-63
2023/07/18 04:46:00;;;;;;;6.40;1.55;;;;;;;20.36;47.44;101403.59;5115883;28;20052;-64
2023/07/18 04:48:28;;;;;;;7.47;1.58;;;;;;;20.06;47.79;101392.84;5114579;28;20048;-63
2023/07/18 04:51:00;;;;;;;8.10;1.80;;;;;;;19.84;48.31;101392.66;5115996;28;20047;-62
2023/07/18 04:53:29;;;;;;;6.88;1.70;;;;;;;19.97;48.09;101392.19;5116190;28;20047;-62
2023/07/18 04:55:57;;;;;;;8.68;1.75;;;;;;;20.01;47.93;101392.28;5111587;28;20052;-61
2023/07/18 04:58:25;;;;;;;7.78;1.95;;;;;;;20.05;47.49;101391.19;5095495;28;20043;-64
2023/07/18 05:00:56;;;;;;;5.70;1.40;;;;;;;19.93;47.21;101379.28;5086171;28;20062;-64
2023/07/18 05:03:24;;;;;;;11.30;1.80;;;;;;;19.80;47.33;101394.53;5098009;28;20050;-64
2023/07/18 05:05:53;;;;;;;6.97;1.58;;;;;;;19.96;47.03;101384.97;5115847;28;20047;-64
2023/07/18 05:08:21;;;;;;;7.80;1.40;;;;;;;19.79;47.37;101376.94;5116012;28;20044;-65
2023/07/18 05:10:50;;;;;;;5.53;1.70;;;;;;;19.81;47.18;101371.78;5115902;28;20047;-65
2023/07/18 05:13:17;;;;;;;5.35;1.75;;;;;;;19.75;47.20;101364.84;5096799;28;20510;-64
2023/07/18 05:15:44;;;;;;;3.60;1.33;;;;;;;20.08;46.44;101358.91;5115677;28;20054;-64
2023/07/18 05:18:12;;;;;;;7.13;1.70;;;;;;;19.89;46.47;101362.41;5100567;28;20047;-65
2023/07/18 05:20:39;;;;;;;9.02;1.75;;;;;;;19.78;46.66;101366.13;5096242;28;20070;-65
2023/07/18 05:23:07;;;;;;;5.95;1.58;;;;;;;19.73;46.84;101375.59;5097216;28;20086;-64
2023/07/18 05:25:36;;;;;;;5.35;1.52;;;;;;;19.90;45.72;101377.22;5103782;28;20052;-65
2023/07/18 05:28:07;;;;;;;4.93;1.67;;;;;;;19.94;46.04;101372.53;5105619;28;20580;-64
2023/07/18 05:30:34;;;;;;;6.78;1.98;;;;;;;19.86;45.94;101376.31;5104896;28;20056;-64
2023/07/18 05:33:01;;;;;;;5.72;1.40;;;;;;;19.67;46.68;101381.78;5108098;28;20046;-64
2023/07/18 05:35:28;;;;;;;6.70;1.50;;;;;;;19.67;46.82;101377.00;5109347;28;20070;-64
2023/07/18 05:37:56;;;;;;;9.45;1.77;;;;;;;19.89;46.31;101364.41;5109756;28;20035;-65
2023/07/18 05:40:23;;;;;;;8.88;1.80;;;;;;;20.20;45.43;101372.81;5113345;28;20059;-64
2023/07/18 05:42:51;;;;;;;5.30;1.45;;;;;;;20.16;45.95;101377.50;5095826;28;20070;-64
2023/07/18 05:45:18;;;;;;;8.02;1.50;;;;;;;20.37;44.84;101374.41;5114251;28;20044;-64
2023/07/18 05:47:46;;;;;;;12.68;2.35;;;;;;;20.15;45.70;101367.47;5107037;28;20044;-64
2023/07/18 05:50:13;;;;;;;8.40;1.80;;;;;;;20.22;45.84;101373.28;5114552;27;20044;-64
2023/07/18 05:52:40;;;;;;;7.55;1.80;;;;;;;20.25;45.35;101383.75;5114400;28;20054;-64
2023/07/18 05:55:08;;;;;;;4.85;1.27;;;;;;;20.20;44.94;101372.00;5114228;28;20048;-64
2023/07/18 05:57:37;;;;;;;8.57;1.90;;;;;;;20.10;45.70;101376.94;5113923;28;20052;-64
2023/07/18 06:00:10;;;;;;;7.18;1.95;;;;;;;20.21;45.26;101380.03;5094420;28;20101;-65
2023/07/18 06:02:40;;;;;;;8.60;1.70;;;;;;;20.30;45.14;101382.63;5094262;28;20043;-65
2023/07/18 06:05:08;;;;;;;8.57;2.05;;;;;;;20.25;45.07;101383.75;5112894;28;20051;-65
2023/07/18 06:07:35;;;;;;;8.55;1.83;;;;;;;20.22;45.29;101372.47;5112761;28;20070;-64
2023/07/18 06:10:03;;;;;;;13.85;1.95;;;;;;;20.23;44.84;101379.66;5095145;28;20054;-65
2023/07/18 06:12:31;;;;;;;11.13;1.85;;;;;;;20.22;45.26;101378.06;5113878;28;20047;-65
2023/07/18 06:14:58;;;;;;;13.18;2.00;;;;;;;20.17;45.09;101374.34;5095031;28;20043;-64
2023/07/18 06:17:25;;;;;;;9.55;2.30;;;;;;;20.08;45.86;101373.69;5113146;28;20047;-65
2023/07/18 06:19:53;;;;;;;12.73;2.28;;;;;;;20.18;45.50;101375.16;5095520;28;20043;-64
2023/07/18 06:22:20;;;;;;;6.03;1.80;;;;;;;20.22;45.39;101370.47;5114166;28;20047;-66
2023/07/18 06:24:48;;;;;;;13.30;2.00;;;;;;;20.31;44.74;101373.09;5114135;28;20060;-66
2023/07/18 06:27:15;;;;;;;9.18;1.75;;;;;;;20.44;44.65;101378.19;5105331;28;20063;-65
2023/07/18 06:29:44;;;;;;;11.05;2.40;;;;;;;20.28;45.18;101391.41;5102489;28;20044;-67
2023/07/18 06:32:12;;;;;;;10.73;1.92;;;;;;;20.40;44.82;101382.91;5090956;28;20070;-68
2023/07/18 06:34:43;;;;;;;6.82;1.98;;;;;;;20.44;44.66;101389.41;5090028;28;20061;-67
2023/07/18 06:37:13;;;;;;;11.00;2.42;;;;;;;20.71;44.33;101384.84;5098802;28;20047;-67
2023/07/18 06:39:41;;;;;;;16.02;2.50;;;;;;;20.87;43.43;101386.41;5104901;28;20048;-68
2023/07/18 06:42:08;;;;;;;12.70;2.45;;;;;;;20.59;43.46;101376.56;5083421;28;20064;-67
2023/07/18 06:44:36;;;;;;;8.95;2.25;;;;;;;20.71;43.43;101399.63;5100762;28;20052;-67
2023/07/18 06:47:04;;;;;;;7.93;2.22;;;;;;;20.67;43.78;101414.72;5091014;28;20828;-68
2023/07/18 06:49:31;;;;;;;13.75;1.98;;;;;;;20.61;43.67;101400.19;5101592;28;20055;-68
2023/07/18 06:51:59;;;;;;;10.93;2.08;;;;;;;20.64;43.59;101404.28;5072380;28;20054;-66
2023/07/18 06:54:26;;;;;;;13.75;2.33;;;;;;;20.66;43.55;101396.31;5104878;28;20043;-66
2023/07/18 06:56:53;;;;;;;10.32;2.45;;;;;;;20.46;43.63;101397.44;5111541;28;20171;-65
2023/07/18 06:59:24;;;;;;;16.27;2.20;;;;;;;20.57;43.93;101399.31;5110397;28;20047;-68
2023/07/18 07:01:51;;;;;;;11.50;2.22;;;;;;;20.98;43.26;101412.69;5097545;28;20043;-65
2023/07/18 07:04:19;;;;;;;6.30;1.92;;;;;;;20.83;43.59;101419.13;5091359;28;20056;-66
2023/07/18 07:06:47;;;;;;;13.57;1.88;;;;;;;21.06;43.51;101413.66;5105402;28;20052;-64
2023/07/18 07:09:14;;;;;;;9.57;2.10;;;;;;;21.42;42.63;101418.00;5109615;28;20040;-64
2023/07/18 07:11:43;;;;;;;12.85;2.97;;;;;;;21.55;42.14;101400.66;5111146;28;20051;-63
2023/07/18 07:14:11;;;;;;;10.88;2.13;;;;;;;21.41;42.27;101396.78;5112358;28;20044;-63
2023/07/18 07:16:39;;;;;;;14.02;2.05;;;;;;;21.17;42.54;101375.47;5112588;27;20040;-63
2023/07/18 07:19:07;;;;;;;11.95;2.38;;;;;;;21.15;43.12;101381.44;5107974;28;20044;-64
2023/07/18 07:21:35;;;;;;;9.90;2.70;;;;;;;21.52;42.52;101393.00;5105115;28;20047;-62
2023/07/18 07:24:03;;;;;;;10.93;2.47;;;;;;;21.44;42.53;101412.84;5107220;28;20043;-63
2023/07/18 07:26:30;;;;;;;15.98;2.20;;;;;;;21.55;42.27;101433.50;5108679;28;20067;-63
2023/07/18 07:28:58;;;;;;;8.13;2.15;;;;;;;21.59;42.13;101421.16;5093674;28;21017;-64
2023/07/18 07:31:25;;;;;;;11.88;2.70;;;;;;;21.50;42.17;101405.75;5115138;27;20047;-64
2023/07/18 07:33:53;;;;;;;11.60;2.55;;;;;;;21.96;41.88;101413.09;5116874;27;20048;-63
2023/07/18 07:36:21;;;;;;;16.30;2.40;;;;;;;21.76;41.42;101401.06;5113600;28;20043;-63
2023/07/18 07:38:49;;;;;;;14.07;2.47;;;;;;;21.78;41.37;101364.25;5089838;28;20051;-63
2023/07/18 07:41:16;;;;;;;11.10;2.38;;;;;;;21.88;41.29;101341.22;5108451;28;20070;-64
2023/07/18 07:43:44;;;;;;;10.30;2.17;;;;;;;22.09;40.84;101311.50;5111934;28;20039;-64
2023/07/18 07:46:11;;;;;;;9.88;2.55;;;;;;;22.33;41.14;101304.66;5104998;28;20060;-64
2023/07/18 07:48:39;;;;;;;16.67;3.05;;;;;;;22.18;41.24;101289.59;5109441;28;20055;-63
2023/07/18 07:51:07;;;;;;;9.38;2.50;;;;;;;22.19;40.71;101237.09;5110510;28;20056;-63
2023/07/18 07:53:34;;;;;;;13.10;2.55;;;;;;;22.16;40.99;101216.19;5089127;28;20521;-63
2023/07/18 07:56:01;;;;;;;12.85;2.88;;;;;;;22.18;40.99;101194.19;5107014;27;20445;-63
2023/07/18 07:58:29;;;;;;;17.13;3.08;;;;;;;22.07;41.29;101170.78;5082301;28;21790;-63
2023/07/18 08:00:56;;;;;;;18.27;3.05;;;;;;;22.09;41.45;101179.63;5104287;28;20526;-63
2023/07/18 08:03:24;;;;;;;16.23;2.55;;;;;;;22.45;41.17;101196.94;5102678;28;21765;-63
2023/07/18 08:05:51;;;;;;;12.43;2.70;;;;;;;22.77;40.65;101209.41;5102987;27;20044;-63
2023/07/18 08:08:18;;;;;;;10.57;2.28;;;;;;;22.71;40.46;101186.47;5103057;28;20055;-62
2023/07/18 08:10:46;;;;;;;11.23;2.20;;;;;;;23.00;39.98;101159.47;5110802;28;20534;-63
2023/07/18 08:13:16;;;;;;;20.88;3.17;;;;;;;23.08;39.74;101183.66;5106947;28;20047;-64
2023/07/18 08:15:44;;;;;;;13.77;2.83;;;;;;;23.34;39.20;101164.63;5106364;28;20538;-64
2023/07/18 08:18:12;;;;;;;12.73;2.53;;;;;;;23.14;39.51;101140.75;5106355;28;20063;-63
2023/07/18 08:20:39;;;;;;;9.88;2.60;;;;;;;23.16;39.86;101129.94;5106819;28;20036;-63
2023/07/18 08:23:07;;;;;;;8.52;2.28;;;;;;;23.38;39.40;101142.97;5109981;27;20062;-64
2023/07/18 08:25:34;;;;;;;7.32;2.20;;;;;;;23.64;39.09;101135.56;5099098;28;20063;-63
2023/07/18 08:28:02;;;;;;;9.55;2.60;;;;;;;23.49;39.57;101159.13;5098039;28;20040;-63
2023/07/18 08:30:29;;;;;;;13.73;2.88;;;;;;;23.23;39.60;101174.97;5093589;28;20048;-62
2023/07/18 08:32:57;;;;;;;6.25;2.13;;;;;;;23.54;39.73;101190.50;5107912;28;20047;-63
2023/07/18 08:35:25;;;;;;;13.05;2.58;;;;;;;23.48;39.90;101200.53;5104749;28;20060;-64
2023/07/18 08:37:58;;;;;;;9.60;2.58;;;;;;;23.46;40.07;101214.16;5106663;28;20050;-63
2023/07/18 08:40:25;;;;;;;9.10;2.53;;;;;;;23.62;39.66;101223.13;5089509;28;20052;-63
2023/07/18 08:42:53;;;;;;;13.35;2.63;;;;;;;23.86;39.50;101233.78;5107936;28;20044;-65
2023/07/18 08:45:22;;;;;;;9.75;2.10;;;;;;;23.95;38.79;101239.88;5110186;27;20058;-66
2023/07/18 08:47:56;;;;;;;12.55;2.53;;;;;;;23.65;39.09;101244.84;5097695;28;20520;-65
2023/07/18 08:50:26;;;;;;;15.05;3.28;;;;;;;23.98;38.81;101250.34;5092595;28;20040;-63
2023/07/18 08:52:54;;;;;;;11.60;3.10;;;;;;;23.91;39.06;101258.72;5108621;27;20055;-64
2023/07/18 08:55:22;;;;;;;9.82;2.38;;;;;;;23.92;39.30;101256.72;5090945;27;20050;-64
2023/07/18 08:57:50;;;;;;;13.93;2.65;;;;;;;24.02;39.20;101254.03;5094250;28;20047;-64
2023/07/18 09:00:20;;;;;;;10.10;2.03;;;;;;;23.87;39.02;101243.81;5106669;28;20047;-64
2023/07/18 09:02:51;;;;;;;10.15;2.17;;;;;;;23.42;39.45;101244.25;5112436;28;20047;-66
2023/07/18 09:05:34;;;;;;;17.38;2.72;;;;;;;23.12;40.01;101243.50;5086860;28;20443;-65
2023/07/18 09:08:04;;;;;;;7.75;2.25;;;;;;;23.50;39.91;101240.31;5103587;28;20043;-64
2023/07/18 09:10:32;;;;;;;15.77;2.95;;;;;;;23.83;38.85;101242.19;5106514;28;20032;-64
2023/07/18 09:13:04;;;;;;;12.80;3.05;;;;;;;23.54;39.60;101241.13;5092157;28;20051;-63
2023/07/18 09:15:36;;;;;;;13.20;2.50;;;;;;;23.72;39.41;101225.22;5106267;28;20055;-64
2023/07/18 09:18:06;;;;;;;9.70;2.40;;;;;;;24.25;38.39;101226.41;5089402;28;20406;-65
2023/07/18 09:20:34;;;;;;;;;;;;;;;24.33;38.54;101221.63;5103028;27;20044;-62
2023/07/18 09:23:03;;;;;;;14.85;3.80;;;;;;;24.45;38.13;101221.28;5091569;28;19930;-61
2023/07/18 09:25:31;;;;;;;9.10;2.27;;;;;;;24.08;38.14;101227.13;5109342;27;20048;-60
2023/07/18 09:27:58;;;;;;;13.13;2.92;;;;;;;24.25;38.27;101229.22;5092565;28;20072;-63
2023/07/18 09:30:34;;;;;;;12.88;2.85;;;;;;;24.47;38.36;101227.34;5110448;28;20051;-62
2023/07/18 09:33:05;;;;;;;7.95;2.30;;;;;;;24.78;38.32;101221.06;5090850;28;20051;-62
2023/07/18 09:35:38;;;;;;;16.05;3.15;;;;;;;24.89;37.08;101212.63;5108386;28;20051;-63
2023/07/18 09:38:09;;;;;;;10.95;2.60;;;;;;;25.11;37.08;101205.81;5108591;27;20043;-62
2023/07/18 09:40:39;;;;;;;10.27;2.85;;;;;;;24.57;36.80;101206.84;5103161;28;20446;-61
2023/07/18 09:43:07;;;;;;;7.20;2.40;;;;;;;24.40;37.96;101208.41;5105152;28;20914;-64
2023/07/18 09:45:34;;;;;;;9.90;2.72;;;;;;;24.51;36.95;101206.41;5108102;28;20051;-61
2023/07/18 09:48:05;;;;;;;11.07;2.30;;;;;;;24.33;37.61;101214.00;5087962;28;20048;-62
2023/07/18 09:50:36;;;;;;;14.88;5.28;;;;;;;24.23;37.38;101206.28;5108139;28;20054;-62
2023/07/18 09:53:10;;;;;;;10.27;3.47;;;;;;;24.63;36.89;101196.81;5101990;28;20044;-61
2023/07/18 09:55:39;;;;;;;18.38;3.08;;;;;;;24.71;37.00;101194.84;5091440;28;20055;-62
2023/07/18 09:58:08;;;;;;;7.78;2.08;;;;;;;24.16;37.13;101192.19;5108874;28;20048;-62
2023/07/18 10:00:37;;;;;;;13.50;2.70;;;;;;;24.17;37.21;101193.78;5077550;28;20040;-61
2023/07/18 10:03:05;;;;;;;12.23;2.53;;;;;;;23.95;37.92;101189.22;5091727;28;20047;-61
2023/07/18 10:05:35;;;;;;;;;;;;;;;23.88;38.10;101189.16;5107075;28;20052;-61
2023/07/18 10:08:06;;;;;;;10.93;2.67;;;;;;;24.42;37.39;101180.66;5103769;28;20437;-62
2023/07/18 10:10:34;;;;;;;11.88;2.60;;;;;;;24.79;36.61;101182.41;5090611;28;20581;-63
2023/07/18 10:13:01;;;;;;;12.13;2.83;;;;;;;24.80;36.27;101184.84;5107948;28;20536;-61
2023/07/18 10:15:30;;;;;;;12.48;3.08;;;;;;;24.60;36.67;101177.09;5107206;28;20050;-61
2023/07/18 10:18:22;;;;;;;12.25;5.38;;;;;;;24.32;37.29;101172.94;5089187;28;20422;-63
2023/07/18 10:20:58;;;;;;;7.03;2.92;;;;;;;24.01;37.44;101169.97;5101427;28;20048;-63
2023/07/18 10:23:40;;;;;;;11.75;2.85;;;;;;;24.06;37.30;101164.78;5101967;28;20039;-62
2023/07/18 10:26:08;;;;;;;7.35;2.50;;;;;;;24.35;36.66;101162.91;5102752;28;20058;-61
2023/07/18 10:28:44;;;;;;;10.80;2.55;;;;;;;24.57;36.48;101150.50;5106362;28;20062;-60
2023/07/18 10:31:33;;;;;;;14.57;2.17;;;;;;;24.64;36.68;101146.91;5110331;28;20410;-61
2023/07/18 10:34:09;;;;;;;6.55;2.58;;;;;;;24.78;36.18;101144.97;5105134;27;20055;-61
2023/07/18 10:36:39;;;;;;;13.25;3.03;;;;;;;24.56;36.26;101145.28;5104222;28;20613;-61
2023/07/18 10:39:08;;;;;;;;;;;;;;;24.30;36.46;101141.56;5107990;27;20062;-62
2023/07/18 10:41:36;;;;;;;11.70;2.90;;;;;;;24.43;36.90;101142.84;5105919;28;19924;-61
2023/07/18 10:44:04;;;;;;;11.27;2.00;;;;;;;24.31;36.66;101129.09;5090280;28;20047;-58
2023/07/18 10:46:36;;;;;;;6.80;2.10;;;;;;;24.54;36.11;101123.16;5088524;28;20051;-60
2023/07/18 10:49:04;;;;;;;5.30;1.70;;;;;;;24.75;35.88;101128.06;5101268;28;20047;-59
2023/07/18 10:51:33;;;;;;;8.18;2.15;;;;;;;24.49;36.19;101113.09;5113188;28;20040;-62
2023/07/18 10:54:00;;;;;;;8.75;2.47;;;;;;;24.47;36.55;101109.03;5106685;28;20055;-61
2023/07/18 10:56:28;;;;;;;10.23;2.55;;;;;;;24.56;36.16;101112.28;5105280;28;20047;-61
2023/07/18 10:58:56;;;;;;;10.90;1.98;;;;;;;24.59;36.29;101121.94;5084039;28;20392;-61
2023/07/18 11:01:25;;;;;;;9.85;2.65;;;;;;;24.54;36.77;101117.50;5106068;28;20032;-61
2023/07/18 11:03:52;;;;;;;13.98;7.15;;;;;;;24.94;36.48;101107.94;5101033;28;20515;-58
2023/07/18 11:06:23;;;;;;;6.32;2.50;;;;;;;25.07;36.10;101112.00;5099955;28;20059;-61
2023/07/18 11:08:51;;;;;;;16.30;2.55;;;;;;;25.09;35.71;101103.94;5102504;28;20044;-60
2023/07/18 11:11:18;;;;;;;7.68;2.08;;;;;;;25.48;35.60;101101.94;5085414;28;20047;-61
2023/07/18 11:13:46;;;;;;;7.10;2.00;;;;;;;25.49;35.02;101103.53;5102769;28;20044;-58
2023/07/18 11:16:15;;;;;;;12.15;2.63;;;;;;;25.04;35.36;101098.69;5104902;28;20505;-60
2023/07/18 11:18:48;;;;;;;11.40;2.35;;;;;;;24.94;35.84;101099.50;5106610;28;20055;-61
2023/07/18 11:21:17;;;;;;;15.38;2.35;;;;;;;24.93;35.67;101087.41;5087856;28;20052;-61
2023/07/18 11:23:45;;;;;;;7.40;2.00;;;;;;;24.98;35.03;101087.03;5102675;28;20048;-60
2023/07/18 11:26:18;;;;;;;12.93;2.47;;;;;;;25.34;35.15;101091.44;5105203;28;20772;-60
2023/07/18 11:28:49;;;;;;;6.78;2.10;;;;;;;25.58;34.57;101087.00;5101009;28;20067;-64
2023/07/18 11:31:27;;;;;;;8.02;2.03;;;;;;;25.99;33.99;101078.81;5108716;28;20048;-62